sensor_id;sensor_type;location;lat;lon;timestamp;pressure;altitude;pressure_sealevel;temperature;humidity
40730;BME280;26418;50.070;8.436;2023-06-26T00:04:07;99856.13;;;21.98;53.18
40730;BME280;26418;50.070;8.436;2023-06-26T00:06:44;99848.25;;;21.93;53.02
40730;BME280;26418;50.070;8.436;2023-06-26T00:09:10;99850.59;;;21.95;53.23
40730;BME280;26418;50.070;8.436;2023-06-26T00:11:41;99853.72;;;21.90;53.26
40730;BME280;26418;50.070;8.436;2023-06-26T00:24:22;99848.84;;;21.76;54.15
40730;BME280;26418;50.070;8.436;2023-06-26T00:26:47;99841.69;;;21.67;54.27
40730;BME280;26418;50.070;8.436;2023-06-26T00:29:31;99857.44;;;21.71;53.91
40730;BME280;26418;50.070;8.436;2023-06-26T00:32:12;99846.38;;;21.63;53.97
40730;BME280;26418;50.070;8.436;2023-06-26T00:34:43;99844.41;;;21.64;54.27
40730;BME280;26418;50.070;8.436;2023-06-26T00:37:15;99852.28;;;21.65;54.12
40730;BME280;26418;50.070;8.436;2023-06-26T00:39:40;99849.88;;;21.60;54.46
40730;BME280;26418;50.070;8.436;2023-06-26T00:42:12;99845.81;;;21.50;54.59
40730;BME280;26418;50.070;8.436;2023-06-26T00:44:40;99845.78;;;21.47;55.05
40730;BME280;26418;50.070;8.436;2023-06-26T00:47:18;99843.03;;;21.47;55.36
40730;BME280;26418;50.070;8.436;2023-06-26T00:50:08;99852.47;;;21.49;55.21
40730;BME280;26418;50.070;8.436;2023-06-26T00:52:43;99840.19;;;21.40;55.56
40730;BME280;26418;50.070;8.436;2023-06-26T00:58:40;99840.56;;;21.38;54.98
40730;BME280;26418;50.070;8.436;2023-06-26T01:01:27;99842.47;;;21.34;55.24
40730;BME280;26418;50.070;8.436;2023-06-26T01:04:20;99842.81;;;21.29;55.57
40730;BME280;26418;50.070;8.436;2023-06-26T01:06:56;99834.47;;;21.18;56.03
40730;BME280;26418;50.070;8.436;2023-06-26T01:09:25;99843.22;;;21.27;55.94
40730;BME280;26418;50.070;8.436;2023-06-26T01:12:03;99840.03;;;21.25;56.12
40730;BME280;26418;50.070;8.436;2023-06-26T01:14:29;99841.94;;;21.21;56.00
40730;BME280;26418;50.070;8.436;2023-06-26T01:17:10;99836.03;;;21.19;56.10
40730;BME280;26418;50.070;8.436;2023-06-26T01:19:44;99834.47;;;21.18;56.18
40730;BME280;26418;50.070;8.436;2023-06-26T01:28:13;99825.22;;;21.03;56.22
40730;BME280;26418;50.070;8.436;2023-06-26T01:30:42;99832.31;;;21.04;56.40
40730;BME280;26418;50.070;8.436;2023-06-26T01:33:09;99825.94;;;20.96;56.66
40730;BME280;26418;50.070;8.436;2023-06-26T01:35:36;99821.19;;;20.93;56.69
40730;BME280;26418;50.070;8.436;2023-06-26T01:38:16;99827.09;;;20.95;56.59
40730;BME280;26418;50.070;8.436;2023-06-26T01:40:42;99826.25;;;20.91;56.46
40730;BME280;26418;50.070;8.436;2023-06-26T01:46:33;99814.41;;;20.87;56.89
40730;BME280;26418;50.070;8.436;2023-06-26T01:49:12;99817.50;;;20.82;57.21
40730;BME280;26418;50.070;8.436;2023-06-26T01:51:43;99805.59;;;20.74;57.30
40730;BME280;26418;50.070;8.436;2023-06-26T01:54:18;99812.63;;;20.71;57.35
40730;BME280;26418;50.070;8.436;2023-06-26T01:56:49;99816.59;;;20.74;57.42
40730;BME280;26418;50.070;8.436;2023-06-26T01:59:15;99814.59;;;20.71;57.41
40730;BME280;26418;50.070;8.436;2023-06-26T02:01:42;99816.88;;;20.65;57.61
40730;BME280;26418;50.070;8.436;2023-06-26T02:04:30;99822.31;;;20.62;57.60
40730;BME280;26418;50.070;8.436;2023-06-26T02:06:55;99815.50;;;20.52;58.14
40730;BME280;26418;50.070;8.436;2023-06-26T02:09:21;99812.34;;;20.50;58.55
40730;BME280;26418;50.070;8.436;2023-06-26T02:11:47;99821.72;;;20.49;58.44
40730;BME280;26418;50.070;8.436;2023-06-26T02:14:12;99814.13;;;20.38;58.90
40730;BME280;26418;50.070;8.436;2023-06-26T02:16:38;99814.50;;;20.37;58.45
40730;BME280;26418;50.070;8.436;2023-06-26T02:19:03;99815.28;;;20.37;58.56
40730;BME280;26418;50.070;8.436;2023-06-26T02:21:29;99825.09;;;20.38;58.93
40730;BME280;26418;50.070;8.436;2023-06-26T02:23:54;99800.59;;;20.26;58.71
40730;BME280;26418;50.070;8.436;2023-06-26T02:26:20;99820.28;;;20.32;58.73
40730;BME280;26418;50.070;8.436;2023-06-26T02:28:46;99813.47;;;20.22;58.99
40730;BME280;26418;50.070;8.436;2023-06-26T02:31:11;99818.28;;;20.29;58.96
40730;BME280;26418;50.070;8.436;2023-06-26T02:33:37;99819.50;;;20.31;58.75
40730;BME280;26418;50.070;8.436;2023-06-26T02:36:02;99820.28;;;20.32;58.81
40730;BME280;26418;50.070;8.436;2023-06-26T02:38:28;99824.94;;;20.27;59.12
40730;BME280;26418;50.070;8.436;2023-06-26T02:40:53;99822.09;;;20.20;58.98
40730;BME280;26418;50.070;8.436;2023-06-26T02:43:22;99815.78;;;20.20;59.39
40730;BME280;26418;50.070;8.436;2023-06-26T02:45:51;99812.22;;;20.16;59.36
40730;BME280;26418;50.070;8.436;2023-06-26T02:48:16;99815.34;;;20.14;59.60
40730;BME280;26418;50.070;8.436;2023-06-26T02:50:42;99809.03;;;20.14;59.63
40730;BME280;26418;50.070;8.436;2023-06-26T02:53:11;99815.34;;;20.14;59.55
40730;BME280;26418;50.070;8.436;2023-06-26T02:55:40;99805.81;;;20.08;59.73
40730;BME280;26418;50.070;8.436;2023-06-26T02:58:06;99809.75;;;20.10;59.88
40730;BME280;26418;50.070;8.436;2023-06-26T03:00:34;99811.66;;;20.06;59.80
40730;BME280;26418;50.070;8.436;2023-06-26T03:03:07;99817.53;;;20.05;59.98
40730;BME280;26418;50.070;8.436;2023-06-26T03:05:45;99808.88;;;20.03;59.75
40730;BME280;26418;50.070;8.436;2023-06-26T03:08:10;99815.53;;;20.02;60.25
40730;BME280;26418;50.070;8.436;2023-06-26T03:10:36;99807.22;;;19.98;60.40
40730;BME280;26418;50.070;8.436;2023-06-26T03:13:08;99798.88;;;19.91;60.38
40730;BME280;26418;50.070;8.436;2023-06-26T03:15:33;99810.34;;;19.97;60.59
40730;BME280;26418;50.070;8.436;2023-06-26T03:18:04;99816.25;;;19.99;60.97
40730;BME280;26418;50.070;8.436;2023-06-26T03:20:30;99814.59;;;19.94;60.89
40730;BME280;26418;50.070;8.436;2023-06-26T03:22:55;99811.78;;;19.90;61.23
40730;BME280;26418;50.070;8.436;2023-06-26T03:25:21;99815.03;;;19.96;61.11
40730;BME280;26418;50.070;8.436;2023-06-26T03:27:47;99815.03;;;19.96;61.29
40730;BME280;26418;50.070;8.436;2023-06-26T03:30:12;99815.78;;;19.93;61.09
40730;BME280;26418;50.070;8.436;2023-06-26T03:32:38;99812.88;;;19.86;61.34
40730;BME280;26418;50.070;8.436;2023-06-26T03:35:04;99811.34;;;19.85;61.48
40730;BME280;26418;50.070;8.436;2023-06-26T03:37:29;99810.88;;;19.83;61.99
40730;BME280;26418;50.070;8.436;2023-06-26T03:39:55;99804.50;;;19.78;61.75
40730;BME280;26418;50.070;8.436;2023-06-26T03:42:20;99804.66;;;19.86;61.74
40730;BME280;26418;50.070;8.436;2023-06-26T03:44:46;99805.84;;;19.85;61.31
40730;BME280;26418;50.070;8.436;2023-06-26T03:47:11;99791.53;;;19.75;61.40
40730;BME280;26418;50.070;8.436;2023-06-26T03:49:37;99790.00;;;19.78;61.17
40730;BME280;26418;50.070;8.436;2023-06-26T03:52:03;99812.88;;;19.86;61.17
40730;BME280;26418;50.070;8.436;2023-06-26T03:54:28;99802.56;;;19.79;61.18
40730;BME280;26418;50.070;8.436;2023-06-26T03:56:54;99814.75;;;19.82;61.51
40730;BME280;26418;50.070;8.436;2023-06-26T03:59:20;99797.88;;;19.79;61.61
40730;BME280;26418;50.070;8.436;2023-06-26T04:01:45;99791.47;;;19.72;61.70
40730;BME280;26418;50.070;8.436;2023-06-26T04:04:11;99798.69;;;19.80;61.50
40730;BME280;26418;50.070;8.436;2023-06-26T04:06:36;99792.00;;;19.81;61.56
40730;BME280;26418;50.070;8.436;2023-06-26T04:09:02;99797.22;;;19.86;61.70
40730;BME280;26418;50.070;8.436;2023-06-26T04:11:28;99793.25;;;19.84;61.76
40730;BME280;26418;50.070;8.436;2023-06-26T04:13:54;99789.78;;;19.87;61.54
40730;BME280;26418;50.070;8.436;2023-06-26T04:16:21;99811.25;;;20.04;61.57
40730;BME280;26418;50.070;8.436;2023-06-26T04:18:50;99802.22;;;20.04;61.91
40730;BME280;26418;50.070;8.436;2023-06-26T04:21:15;99808.19;;;20.09;61.76
40730;BME280;26418;50.070;8.436;2023-06-26T04:23:42;99813.31;;;20.11;61.75
40730;BME280;26418;50.070;8.436;2023-06-26T04:26:08;99819.34;;;20.20;61.40
40730;BME280;26418;50.070;8.436;2023-06-26T04:28:34;99822.94;;;20.24;61.72
40730;BME280;26418;50.070;8.436;2023-06-26T04:31:01;99813.53;;;20.25;61.51
40730;BME280;26418;50.070;8.436;2023-06-26T04:33:28;99816.44;;;20.36;61.78
40730;BME280;26418;50.070;8.436;2023-06-26T04:35:54;99814.59;;;20.44;61.74
40730;BME280;26418;50.070;8.436;2023-06-26T04:38:20;99812.34;;;20.50;61.54
40730;BME280;26418;50.070;8.436;2023-06-26T04:40:47;99812.16;;;20.66;61.44
40730;BME280;26418;50.070;8.436;2023-06-26T04:43:12;99819.34;;;20.74;60.94
40730;BME280;26418;50.070;8.436;2023-06-26T04:45:38;99804.53;;;20.82;60.75
40730;BME280;26418;50.070;8.436;2023-06-26T04:48:04;99808.97;;;20.91;60.80
40730;BME280;26418;50.070;8.436;2023-06-26T04:50:31;99815.41;;;21.02;60.64
40730;BME280;26418;50.070;8.436;2023-06-26T04:52:58;99816.63;;;21.08;60.44
40730;BME280;26418;50.070;8.436;2023-06-26T04:55:24;99816.78;;;21.19;60.51
40730;BME280;26418;50.070;8.436;2023-06-26T04:57:50;99821.22;;;21.27;60.22
40730;BME280;26418;50.070;8.436;2023-06-26T05:00:16;99811.41;;;21.30;60.36
40730;BME280;26418;50.070;8.436;2023-06-26T05:02:42;99813.53;;;21.44;60.05
40730;BME280;26418;50.070;8.436;2023-06-26T05:05:08;99814.72;;;21.46;60.17
40730;BME280;26418;50.070;8.436;2023-06-26T05:07:34;99816.00;;;21.56;59.86
40730;BME280;26418;50.070;8.436;2023-06-26T05:09:59;99815.69;;;21.61;59.66
40730;BME280;26418;50.070;8.436;2023-06-26T05:12:25;99810.56;;;21.60;59.31
40730;BME280;26418;50.070;8.436;2023-06-26T05:14:50;99814.63;;;21.73;59.09
40730;BME280;26418;50.070;8.436;2023-06-26T05:17:16;99811.13;;;21.80;58.71
40730;BME280;26418;50.070;8.436;2023-06-26T05:19:42;99815.94;;;21.90;58.38
40730;BME280;26418;50.070;8.436;2023-06-26T05:22:08;99812.47;;;21.97;58.26
40730;BME280;26418;50.070;8.436;2023-06-26T05:24:35;99816.06;;;22.05;58.34
40730;BME280;26418;50.070;8.436;2023-06-26T05:27:01;99820.84;;;22.11;58.43
40730;BME280;26418;50.070;8.436;2023-06-26T05:29:27;99822.88;;;22.18;58.56
40730;BME280;26418;50.070;8.436;2023-06-26T05:31:55;99814.66;;;22.25;58.04
40730;BME280;26418;50.070;8.436;2023-06-26T05:34:23;99811.56;;;22.34;58.23
40730;BME280;26418;50.070;8.436;2023-06-26T05:36:51;99803.28;;;22.34;58.63
40730;BME280;26418;50.070;8.436;2023-06-26T05:39:17;99805.34;;;22.41;59.18
40730;BME280;26418;50.070;8.436;2023-06-26T05:41:44;99803.41;;;22.45;58.92
40730;BME280;26418;50.070;8.436;2023-06-26T05:44:10;99808.56;;;22.54;59.20
40730;BME280;26418;50.070;8.436;2023-06-26T05:46:36;99813.72;;;22.63;58.94
40730;BME280;26418;50.070;8.436;2023-06-26T05:49:01;99814.56;;;22.70;58.92
40730;BME280;26418;50.070;8.436;2023-06-26T05:51:30;99813.84;;;22.81;58.85
40730;BME280;26418;50.070;8.436;2023-06-26T05:53:56;99809.94;;;22.89;58.38
40730;BME280;26418;50.070;8.436;2023-06-26T05:56:22;99808.41;;;23.06;57.76
40730;BME280;26418;50.070;8.436;2023-06-26T05:58:48;99817.16;;;23.22;56.61
40730;BME280;26418;50.070;8.436;2023-06-26T06:01:14;99801.44;;;23.30;55.86
40730;BME280;26418;50.070;8.436;2023-06-26T06:03:40;99806.56;;;23.46;52.85
40730;BME280;26418;50.070;8.436;2023-06-26T06:06:05;99802.66;;;23.51;52.08
40730;BME280;26418;50.070;8.436;2023-06-26T06:08:31;99794.78;;;23.60;52.06
40730;BME280;26418;50.070;8.436;2023-06-26T06:10:57;99796.34;;;23.72;51.29
40730;BME280;26418;50.070;8.436;2023-06-26T06:13:23;99795.59;;;23.86;51.08
40730;BME280;26418;50.070;8.436;2023-06-26T06:15:49;99792.84;;;23.97;50.29
40730;BME280;26418;50.070;8.436;2023-06-26T06:18:14;99803.88;;;23.97;48.80
40730;BME280;26418;50.070;8.436;2023-06-26T06:20:40;99808.63;;;24.00;48.54
40730;BME280;26418;50.070;8.436;2023-06-26T06:23:05;99795.22;;;24.06;49.07
40730;BME280;26418;50.070;8.436;2023-06-26T06:25:31;99786.53;;;24.07;47.55
40730;BME280;26418;50.070;8.436;2023-06-26T06:27:57;99792.44;;;24.16;48.09
40730;BME280;26418;50.070;8.436;2023-06-26T06:30:23;99797.59;;;24.22;48.34
40730;BME280;26418;50.070;8.436;2023-06-26T06:32:48;99788.09;;;24.30;48.36
40730;BME280;26418;50.070;8.436;2023-06-26T06:35:18;99795.97;;;24.39;48.20
40730;BME280;26418;50.070;8.436;2023-06-26T06:37:43;99799.88;;;24.48;48.51
40730;BME280;26418;50.070;8.436;2023-06-26T06:40:10;99795.13;;;24.56;48.60
40730;BME280;26418;50.070;8.436;2023-06-26T06:42:36;99800.66;;;24.71;48.71
40730;BME280;26418;50.070;8.436;2023-06-26T06:45:03;99798.28;;;24.73;48.73
40730;BME280;26418;50.070;8.436;2023-06-26T06:47:29;99806.94;;;24.86;48.25
40730;BME280;26418;50.070;8.436;2023-06-26T06:49:54;99806.50;;;24.87;47.88
40730;BME280;26418;50.070;8.436;2023-06-26T06:52:20;99802.16;;;24.90;46.96
40730;BME280;26418;50.070;8.436;2023-06-26T06:54:56;99804.91;;;24.97;46.84
40730;BME280;26418;50.070;8.436;2023-06-26T06:57:26;99802.47;;;25.06;46.36
40730;BME280;26418;50.070;8.436;2023-06-26T06:59:52;99805.63;;;25.12;46.61
40730;BME280;26418;50.070;8.436;2023-06-26T07:02:18;99809.53;;;25.22;46.62
40730;BME280;26418;50.070;8.436;2023-06-26T07:04:43;99806.28;;;25.34;46.39
40730;BME280;26418;50.070;8.436;2023-06-26T07:07:09;99807.81;;;25.50;46.31
40730;BME280;26418;50.070;8.436;2023-06-26T07:09:36;99806.94;;;25.60;45.98
40730;BME280;26418;50.070;8.436;2023-06-26T07:12:01;99809.66;;;25.67;45.87
40730;BME280;26418;50.070;8.436;2023-06-26T07:14:28;99806.47;;;25.69;45.76
40730;BME280;26418;50.070;8.436;2023-06-26T07:16:53;99808.84;;;25.74;45.42
40730;BME280;26418;50.070;8.436;2023-06-26T07:19:19;99802.56;;;25.66;45.78
40730;BME280;26418;50.070;8.436;2023-06-26T07:21:44;99798.88;;;25.80;45.90
40730;BME280;26418;50.070;8.436;2023-06-26T07:24:11;99798.75;;;25.95;45.50
40730;BME280;26418;50.070;8.436;2023-06-26T07:26:37;99795.91;;;26.05;45.06
40730;BME280;26418;50.070;8.436;2023-06-26T07:29:03;99808.59;;;26.03;44.69
40730;BME280;26418;50.070;8.436;2023-06-26T07:31:29;99809.78;;;26.05;44.89
40730;BME280;26418;50.070;8.436;2023-06-26T07:33:54;99802.63;;;26.12;44.64
40730;BME280;26418;50.070;8.436;2023-06-26T07:36:20;99800.59;;;26.16;44.28
40730;BME280;26418;50.070;8.436;2023-06-26T07:38:45;99800.09;;;26.28;43.87
40730;BME280;26418;50.070;8.436;2023-06-26T07:41:11;99808.25;;;26.43;43.28
40730;BME280;26418;50.070;8.436;2023-06-26T07:43:37;99808.69;;;26.41;42.46
40730;BME280;26418;50.070;8.436;2023-06-26T07:46:02;99801.63;;;26.33;42.34
40730;BME280;26418;50.070;8.436;2023-06-26T07:48:27;99796.03;;;26.36;42.96
40730;BME280;26418;50.070;8.436;2023-06-26T07:50:53;99792.00;;;26.45;42.52
40730;BME280;26418;50.070;8.436;2023-06-26T07:53:19;99794.22;;;26.57;41.66
40730;BME280;26418;50.070;8.436;2023-06-26T07:55:44;99796.75;;;26.82;41.77
40730;BME280;26418;50.070;8.436;2023-06-26T07:58:10;99797.44;;;27.21;41.35
40730;BME280;26418;50.070;8.436;2023-06-26T08:00:36;99796.84;;;27.65;40.39
40730;BME280;26418;50.070;8.436;2023-06-26T08:03:02;99803.88;;;27.97;37.26
40730;BME280;26418;50.070;8.436;2023-06-26T08:05:27;99798.38;;;27.93;36.30
40730;BME280;26418;50.070;8.436;2023-06-26T08:07:53;99798.56;;;27.82;37.26
40730;BME280;26418;50.070;8.436;2023-06-26T08:10:18;99794.31;;;27.74;37.46
40730;BME280;26418;50.070;8.436;2023-06-26T08:12:44;99799.88;;;27.74;38.17
40730;BME280;26418;50.070;8.436;2023-06-26T08:15:11;99805.56;;;27.90;37.84
40730;BME280;26418;50.070;8.436;2023-06-26T08:17:37;99796.09;;;28.12;37.82
40730;BME280;26418;50.070;8.436;2023-06-26T08:20:04;99800.09;;;28.11;37.89
40730;BME280;26418;50.070;8.436;2023-06-26T08:22:30;99814.75;;;27.87;37.83
40730;BME280;26418;50.070;8.436;2023-06-26T08:24:56;99822.03;;;27.50;38.64
40730;BME280;26418;50.070;8.436;2023-06-26T08:27:21;99820.59;;;27.38;39.37
40730;BME280;26418;50.070;8.436;2023-06-26T08:29:47;99809.69;;;27.55;38.81
40730;BME280;26418;50.070;8.436;2023-06-26T08:32:13;99806.22;;;27.74;38.89
40730;BME280;26418;50.070;8.436;2023-06-26T08:34:39;99800.53;;;28.05;38.58
40730;BME280;26418;50.070;8.436;2023-06-26T08:37:04;99801.34;;;28.30;37.77
40730;BME280;26418;50.070;8.436;2023-06-26T08:39:30;99803.44;;;28.66;37.61
40730;BME280;26418;50.070;8.436;2023-06-26T08:41:56;99808.66;;;29.04;37.72
40730;BME280;26418;50.070;8.436;2023-06-26T08:44:21;99812.06;;;29.32;36.42
40730;BME280;26418;50.070;8.436;2023-06-26T08:46:51;99812.06;;;29.32;35.86
40730;BME280;26418;50.070;8.436;2023-06-26T08:52:24;99811.19;;;29.52;36.14
40730;BME280;26418;50.070;8.436;2023-06-26T08:54:54;99814.53;;;29.79;34.92
40730;BME280;26418;50.070;8.436;2023-06-26T08:57:23;99808.59;;;29.61;35.19
40730;BME280;26418;50.070;8.436;2023-06-26T08:59:51;99818.91;;;29.27;35.57
40730;BME280;26418;50.070;8.436;2023-06-26T09:02:17;99811.34;;;29.08;35.95
40730;BME280;26418;50.070;8.436;2023-06-26T09:04:42;99816.16;;;29.07;36.51
40730;BME280;26418;50.070;8.436;2023-06-26T09:07:08;99811.41;;;29.24;35.94
40730;BME280;26418;50.070;8.436;2023-06-26T09:09:34;99802.06;;;29.35;35.35
40730;BME280;26418;50.070;8.436;2023-06-26T09:12:01;99804.88;;;29.68;35.18
40730;BME280;26418;50.070;8.436;2023-06-26T09:14:29;99801.56;;;30.06;34.95
40730;BME280;26418;50.070;8.436;2023-06-26T09:16:54;99802.19;;;30.43;34.50
40730;BME280;26418;50.070;8.436;2023-06-26T09:19:20;99806.31;;;30.68;33.77
40730;BME280;26418;50.070;8.436;2023-06-26T09:21:49;99806.22;;;30.71;34.29
40730;BME280;26418;50.070;8.436;2023-06-26T09:24:16;99806.44;;;30.77;34.01
40730;BME280;26418;50.070;8.436;2023-06-26T09:26:42;99813.97;;;31.06;33.79
40730;BME280;26418;50.070;8.436;2023-06-26T09:29:09;99801.97;;;31.35;33.04
40730;BME280;26418;50.070;8.436;2023-06-26T09:31:38;99817.19;;;31.73;33.00
40730;BME280;26418;50.070;8.436;2023-06-26T09:34:04;99813.19;;;32.09;32.59
40730;BME280;26418;50.070;8.436;2023-06-26T09:36:31;99823.34;;;32.51;32.01
40730;BME280;26418;50.070;8.436;2023-06-26T09:39:05;99826.94;;;32.16;31.81
40730;BME280;26418;50.070;8.436;2023-06-26T09:41:35;99833.63;;;31.71;32.85
40730;BME280;26418;50.070;8.436;2023-06-26T09:44:02;99835.25;;;31.16;33.58
40730;BME280;26418;50.070;8.436;2023-06-26T09:46:29;99834.78;;;31.05;34.45
40730;BME280;26418;50.070;8.436;2023-06-26T09:49:01;99823.47;;;30.96;34.39
40730;BME280;26418;50.070;8.436;2023-06-26T09:51:29;99819.28;;;31.17;34.55
40730;BME280;26418;50.070;8.436;2023-06-26T09:53:56;99828.00;;;31.58;34.09
40730;BME280;26418;50.070;8.436;2023-06-26T09:56:21;99837.19;;;31.58;33.88
40730;BME280;26418;50.070;8.436;2023-06-26T09:58:47;99839.00;;;31.52;34.18
40730;BME280;26418;50.070;8.436;2023-06-26T10:01:14;99838.88;;;31.43;34.37
40730;BME280;26418;50.070;8.436;2023-06-26T10:03:39;99840.75;;;31.33;34.37
40730;BME280;26418;50.070;8.436;2023-06-26T10:06:05;99843.44;;;30.94;34.90
40730;BME280;26418;50.070;8.436;2023-06-26T10:08:34;99845.00;;;30.36;35.16
40730;BME280;26418;50.070;8.436;2023-06-26T10:10:59;99847.06;;;30.19;35.99
40730;BME280;26418;50.070;8.436;2023-06-26T10:13:31;99850.00;;;30.29;35.19
40730;BME280;26418;50.070;8.436;2023-06-26T10:16:00;99852.25;;;30.34;34.15
40730;BME280;26418;50.070;8.436;2023-06-26T10:18:27;99853.66;;;30.25;33.95
40730;BME280;26418;50.070;8.436;2023-06-26T10:20:55;99846.94;;;30.23;34.24
40730;BME280;26418;50.070;8.436;2023-06-26T10:23:23;99859.66;;;30.40;34.40
40730;BME280;26418;50.070;8.436;2023-06-26T10:25:51;99853.91;;;30.31;33.75
40730;BME280;26418;50.070;8.436;2023-06-26T10:28:19;99852.53;;;30.23;33.98
40730;BME280;26418;50.070;8.436;2023-06-26T10:30:48;99847.53;;;30.47;33.52
40730;BME280;26418;50.070;8.436;2023-06-26T10:33:16;99847.78;;;30.82;33.18
40730;BME280;26418;50.070;8.436;2023-06-26T10:35:45;99836.06;;;31.30;32.82
40730;BME280;26418;50.070;8.436;2023-06-26T10:38:11;99831.16;;;31.73;31.23
40730;BME280;26418;50.070;8.436;2023-06-26T10:40:43;99820.38;;;32.10;31.52
40730;BME280;26418;50.070;8.436;2023-06-26T10:43:11;99827.66;;;32.42;31.88
40730;BME280;26418;50.070;8.436;2023-06-26T10:45:43;99831.56;;;32.67;31.22
40730;BME280;26418;50.070;8.436;2023-06-26T10:48:09;99829.25;;;32.88;31.00
40730;BME280;26418;50.070;8.436;2023-06-26T10:50:35;99833.00;;;32.94;30.64
40730;BME280;26418;50.070;8.436;2023-06-26T10:55:56;99831.38;;;33.06;30.71
40730;BME280;26418;50.070;8.436;2023-06-26T10:58:32;99828.06;;;33.30;30.76
40730;BME280;26418;50.070;8.436;2023-06-26T11:01:14;99832.50;;;33.40;30.29
40730;BME280;26418;50.070;8.436;2023-06-26T11:03:41;99828.75;;;33.12;31.16
40730;BME280;26418;50.070;8.436;2023-06-26T11:11:10;99827.00;;;32.38;31.97
40730;BME280;26418;50.070;8.436;2023-06-26T11:13:37;99828.63;;;32.13;32.58
40730;BME280;26418;50.070;8.436;2023-06-26T11:16:03;99828.09;;;32.41;32.37
40730;BME280;26418;50.070;8.436;2023-06-26T11:18:29;99829.22;;;32.66;31.84
40730;BME280;26418;50.070;8.436;2023-06-26T11:21:04;99823.28;;;33.08;31.41
40730;BME280;26418;50.070;8.436;2023-06-26T11:23:32;99826.75;;;33.44;30.91
40730;BME280;26418;50.070;8.436;2023-06-26T11:26:13;99837.03;;;33.88;30.39
40730;BME280;26418;50.070;8.436;2023-06-26T11:28:38;99829.56;;;33.94;29.76
40730;BME280;26418;50.070;8.436;2023-06-26T11:31:04;99824.94;;;33.68;30.16
40730;BME280;26418;50.070;8.436;2023-06-26T11:33:29;99831.16;;;33.54;30.05
40730;BME280;26418;50.070;8.436;2023-06-26T11:35:55;99829.31;;;33.69;29.50
40730;BME280;26418;50.070;8.436;2023-06-26T11:38:22;99829.88;;;33.96;29.07
40730;BME280;26418;50.070;8.436;2023-06-26T11:40:48;99840.19;;;34.17;28.84
40730;BME280;26418;50.070;8.436;2023-06-26T11:43:14;99832.91;;;34.39;28.53
40730;BME280;26418;50.070;8.436;2023-06-26T11:45:40;99833.84;;;34.45;28.54
40730;BME280;26418;50.070;8.436;2023-06-26T11:48:07;99833.34;;;34.19;28.81
40730;BME280;26418;50.070;8.436;2023-06-26T11:50:37;99826.94;;;33.99;29.39
40730;BME280;26418;50.070;8.436;2023-06-26T11:53:02;99834.59;;;34.17;29.30
40730;BME280;26418;50.070;8.436;2023-06-26T11:55:41;99832.75;;;34.42;28.93
40730;BME280;26418;50.070;8.436;2023-06-26T11:58:07;99847.53;;;34.15;28.63
40730;BME280;26418;50.070;8.436;2023-06-26T12:00:33;99848.84;;;33.42;29.32
40730;BME280;26418;50.070;8.436;2023-06-26T12:02:58;99851.63;;;32.66;30.49
40730;BME280;26418;50.070;8.436;2023-06-26T12:05:24;99854.00;;;32.32;31.80
40730;BME280;26418;50.070;8.436;2023-06-26T12:07:50;99848.09;;;32.17;31.75
40730;BME280;26418;50.070;8.436;2023-06-26T12:10:17;99847.03;;;32.37;31.32
40730;BME280;26418;50.070;8.436;2023-06-26T12:12:43;99839.13;;;32.57;31.58
40730;BME280;26418;50.070;8.436;2023-06-26T12:15:15;99841.59;;;32.55;31.43
40730;BME280;26418;50.070;8.436;2023-06-26T12:17:41;99846.38;;;32.33;31.81
40730;BME280;26418;50.070;8.436;2023-06-26T12:20:23;99862.19;;;32.13;32.30
40730;BME280;26418;50.070;8.436;2023-06-26T12:22:50;99857.31;;;31.79;33.25
40730;BME280;26418;50.070;8.436;2023-06-26T12:25:23;99857.09;;;31.60;32.86
40730;BME280;26418;50.070;8.436;2023-06-26T12:27:49;99864.66;;;31.34;33.50
40730;BME280;26418;50.070;8.436;2023-06-26T12:30:15;99850.13;;;31.13;33.81
40730;BME280;26418;50.070;8.436;2023-06-26T12:32:44;99871.59;;;31.29;34.14
40730;BME280;26418;50.070;8.436;2023-06-26T12:35:11;99871.50;;;31.59;33.86
40730;BME280;26418;50.070;8.436;2023-06-26T12:37:37;99862.59;;;31.77;33.91
40730;BME280;26418;50.070;8.436;2023-06-26T12:40:16;99880.72;;;31.85;34.22
40730;BME280;26418;50.070;8.436;2023-06-26T12:42:44;99881.72;;;31.78;34.21
40730;BME280;26418;50.070;8.436;2023-06-26T12:45:11;99877.78;;;31.50;34.53
40730;BME280;26418;50.070;8.436;2023-06-26T12:47:38;99881.56;;;31.56;34.88
40730;BME280;26418;50.070;8.436;2023-06-26T12:50:07;99876.53;;;32.03;34.70
40730;BME280;26418;50.070;8.436;2023-06-26T12:52:33;99869.75;;;32.39;33.68
40730;BME280;26418;50.070;8.436;2023-06-26T12:54:58;99897.09;;;32.35;33.85
40730;BME280;26418;50.070;8.436;2023-06-26T12:57:24;99897.16;;;31.96;34.79
40730;BME280;26418;50.070;8.436;2023-06-26T12:59:50;99891.91;;;31.85;35.69
40730;BME280;26418;50.070;8.436;2023-06-26T13:02:16;99888.06;;;31.92;34.73
40730;BME280;26418;50.070;8.436;2023-06-26T13:04:42;99894.69;;;31.98;34.39
40730;BME280;26418;50.070;8.436;2023-06-26T13:07:10;99889.66;;;31.80;34.07
40730;BME280;26418;50.070;8.436;2023-06-26T13:09:36;99881.00;;;31.61;34.19
40730;BME280;26418;50.070;8.436;2023-06-26T13:12:03;99884.41;;;31.69;34.69
40730;BME280;26418;50.070;8.436;2023-06-26T13:14:30;99891.31;;;31.64;34.73
40730;BME280;26418;50.070;8.436;2023-06-26T13:16:56;99884.72;;;31.58;34.57
40730;BME280;26418;50.070;8.436;2023-06-26T13:19:21;99896.41;;;31.27;34.00
40730;BME280;26418;50.070;8.436;2023-06-26T13:21:47;99886.94;;;31.08;34.50
40730;BME280;26418;50.070;8.436;2023-06-26T13:24:12;99881.53;;;31.17;34.77
40730;BME280;26418;50.070;8.436;2023-06-26T13:26:38;99876.66;;;31.34;34.91
40730;BME280;26418;50.070;8.436;2023-06-26T13:29:04;99870.72;;;31.32;33.69
40730;BME280;26418;50.070;8.436;2023-06-26T13:31:31;99888.72;;;31.31;33.52
40730;BME280;26418;50.070;8.436;2023-06-26T13:33:59;99879.97;;;31.29;33.15
40730;BME280;26418;50.070;8.436;2023-06-26T13:36:25;99885.22;;;31.27;33.35
40730;BME280;26418;50.070;8.436;2023-06-26T13:38:51;99885.03;;;31.34;33.34